createdAt,value
2022-11-18T00:00:03.108Z,91.70
2022-11-18T00:02:31.261Z,91.90
2022-11-18T00:04:59.230Z,91.80
2022-11-18T00:07:29.392Z,91.90
2022-11-18T00:09:57.314Z,91.90
2022-11-18T00:12:42.495Z,91.90
2022-11-18T00:15:10.654Z,91.90
2022-11-18T00:17:38.551Z,91.90
2022-11-18T00:20:07.202Z,91.80
2022-11-18T00:22:36.472Z,91.90
2022-11-18T00:25:04.750Z,91.90
2022-11-18T00:27:32.850Z,91.90
2022-11-18T00:30:00.773Z,91.90
2022-11-18T00:32:28.684Z,91.90
2022-11-18T00:34:56.556Z,91.90
2022-11-18T00:37:24.433Z,91.90
2022-11-18T00:39:53.682Z,91.90
2022-11-18T00:42:39.152Z,92.10
2022-11-18T00:45:07.976Z,92.10
2022-11-18T00:47:35.867Z,92.20
2022-11-18T00:50:03.776Z,92.10
2022-11-18T00:52:31.663Z,92.10
2022-11-18T00:55:00.939Z,92.10
2022-11-18T00:57:28.880Z,92.00
2022-11-18T00:59:56.750Z,92.20
2022-11-18T01:02:24.665Z,92.10
2022-11-18T01:04:52.535Z,92.10
2022-11-18T01:07:20.499Z,92.20
2022-11-18T01:09:48.465Z,92.20
2022-11-18T01:12:34.951Z,92.30
2022-11-18T01:15:02.892Z,92.20
2022-11-18T01:17:32.002Z,92.20
2022-11-18T01:19:59.918Z,92.30
2022-11-18T01:22:27.828Z,92.20
2022-11-18T01:24:55.746Z,92.20
2022-11-18T01:27:25.018Z,92.20
2022-11-18T01:29:52.889Z,92.20
2022-11-18T01:32:25.286Z,92.20
2022-11-18T01:34:53.666Z,92.10
2022-11-18T01:37:21.615Z,92.20
2022-11-18T01:39:49.472Z,92.30
2022-11-18T01:42:18.613Z,92.30
2022-11-18T01:45:09.559Z,92.40
2022-11-18T01:47:41.333Z,92.40
2022-11-18T01:50:10.593Z,92.40
2022-11-18T01:52:39.255Z,92.30
2022-11-18T01:55:11.758Z,92.30
2022-11-18T01:57:40.371Z,92.30
2022-11-18T02:00:11.014Z,92.30
2022-11-18T02:02:39.527Z,92.30
2022-11-18T02:05:10.707Z,92.30
2022-11-18T02:07:41.897Z,92.30
2022-11-18T02:10:17.980Z,92.40
2022-11-18T02:12:45.931Z,92.50
2022-11-18T02:15:15.320Z,92.40
2022-11-18T02:17:53.653Z,92.40
2022-11-18T02:20:31.219Z,92.40
2022-11-18T02:23:26.484Z,92.50
2022-11-18T02:26:22.228Z,92.50
2022-11-18T02:29:04.200Z,92.50
2022-11-18T02:31:38.483Z,92.50
2022-11-18T02:34:13.611Z,92.50
2022-11-18T02:36:46.027Z,92.60
2022-11-18T02:39:21.055Z,92.50
2022-11-18T02:41:52.741Z,92.60
2022-11-18T02:44:26.082Z,92.50
2022-11-18T02:46:58.672Z,92.60
2022-11-18T02:49:32.890Z,92.50
2022-11-18T02:52:05.673Z,92.50
2022-11-18T02:54:35.335Z,92.50
2022-11-18T02:57:04.379Z,92.60
2022-11-18T02:59:33.794Z,92.60
2022-11-18T03:02:01.744Z,92.50
2022-11-18T03:04:30.366Z,92.50
2022-11-18T03:07:10.864Z,92.60
2022-11-18T03:09:41.354Z,92.50
2022-11-18T03:12:19.222Z,92.50
2022-11-18T03:15:01.933Z,92.50
2022-11-18T03:17:39.600Z,92.60
2022-11-18T03:20:15.982Z,92.60
2022-11-18T03:22:48.771Z,93.00
2022-11-18T03:25:22.672Z,92.70
2022-11-18T03:27:57.703Z,92.70
2022-11-18T03:30:27.942Z,92.70
2022-11-18T03:33:01.498Z,92.70
2022-11-18T03:35:34.049Z,92.80
2022-11-18T03:38:08.445Z,92.80
2022-11-18T03:40:39.651Z,92.80
2022-11-18T03:43:11.871Z,92.70
2022-11-18T03:45:45.801Z,92.70
2022-11-18T03:48:17.827Z,92.70
2022-11-18T03:50:49.602Z,92.70
2022-11-18T03:53:20.156Z,92.70
2022-11-18T03:55:52.274Z,92.70
2022-11-18T03:58:24.717Z,92.60
2022-11-18T04:00:58.914Z,92.70
2022-11-18T04:03:27.501Z,92.60
2022-11-18T04:06:06.028Z,92.60
2022-11-18T04:08:39.114Z,92.60
2022-11-18T04:11:32.396Z,92.70
2022-11-18T04:14:01.533Z,92.70
2022-11-18T04:16:30.866Z,92.70
2022-11-18T04:19:02.834Z,92.70
2022-11-18T04:21:33.932Z,92.70
2022-11-18T04:24:01.838Z,92.80
2022-11-18T04:26:31.487Z,92.80
2022-11-18T04:28:59.517Z,92.80
2022-11-18T04:31:27.617Z,92.70
2022-11-18T04:33:56.843Z,92.70
2022-11-18T04:36:24.806Z,92.70
2022-11-18T04:38:52.655Z,92.70
2022-11-18T04:41:20.542Z,92.70
2022-11-18T04:43:48.409Z,92.80
2022-11-18T04:46:16.276Z,92.80
2022-11-18T04:48:44.208Z,92.70
2022-11-18T04:51:13.451Z,93.20
2022-11-18T04:53:41.481Z,92.80
2022-11-18T04:56:09.636Z,92.70
2022-11-18T04:58:37.537Z,92.70
2022-11-18T05:01:05.526Z,92.80
2022-11-18T05:03:33.456Z,92.80
2022-11-18T05:06:03.135Z,92.80
2022-11-18T05:08:32.791Z,92.80
2022-11-18T05:11:20.692Z,92.70
2022-11-18T05:13:49.978Z,92.80
2022-11-18T05:16:18.096Z,92.80
2022-11-18T05:18:46.084Z,92.80
2022-11-18T05:21:14.003Z,92.80
2022-11-18T05:23:43.261Z,92.80
2022-11-18T05:26:12.406Z,92.80
2022-11-18T05:28:40.721Z,92.80
2022-11-18T05:31:09.500Z,92.80
2022-11-18T05:33:37.405Z,92.80
2022-11-18T05:36:06.658Z,92.80
2022-11-18T05:38:35.039Z,92.80
2022-11-18T05:41:04.933Z,92.80
2022-11-18T05:43:31.873Z,92.80
2022-11-18T05:46:00.813Z,92.80
2022-11-18T05:48:28.990Z,92.80
2022-11-18T05:50:57.253Z,93.00
2022-11-18T05:53:26.277Z,92.80
2022-11-18T05:55:59.635Z,92.70
2022-11-18T05:58:29.160Z,92.80
2022-11-18T06:00:59.100Z,92.70
2022-11-18T06:03:31.195Z,92.70
2022-11-18T06:06:02.941Z,92.80
2022-11-18T06:08:35.410Z,92.80
2022-11-18T06:11:03.563Z,92.80
2022-11-18T06:13:38.637Z,92.80
2022-11-18T06:16:06.868Z,92.80
2022-11-18T06:18:35.915Z,92.80
2022-11-18T06:21:06.525Z,92.80
2022-11-18T06:23:37.203Z,92.80
2022-11-18T06:26:05.312Z,92.80
2022-11-18T06:28:35.497Z,92.80
2022-11-18T06:31:03.487Z,92.80
2022-11-18T06:33:31.375Z,92.80
2022-11-18T06:35:59.256Z,92.70
2022-11-18T06:38:27.292Z,92.70
2022-11-18T06:40:55.259Z,92.70
2022-11-18T06:43:42.369Z,92.80
2022-11-18T06:46:31.666Z,92.80
2022-11-18T06:49:00.092Z,92.80
2022-11-18T06:51:28.871Z,92.80
2022-11-18T06:53:56.984Z,92.80
2022-11-18T06:56:25.464Z,92.80
2022-11-18T06:58:57.728Z,92.80
2022-11-18T07:01:28.874Z,92.80
2022-11-18T07:03:59.343Z,92.80
2022-11-18T07:06:29.020Z,92.80
2022-11-18T07:08:57.639Z,92.80
2022-11-18T07:11:27.378Z,92.80
2022-11-18T07:13:55.432Z,92.80
2022-11-18T07:16:27.093Z,92.80
2022-11-18T07:18:56.169Z,92.80
2022-11-18T07:21:26.179Z,92.80
2022-11-18T07:23:54.714Z,92.80
2022-11-18T07:26:24.127Z,92.80
2022-11-18T07:28:52.283Z,92.80
2022-11-18T07:31:21.756Z,92.80
2022-11-18T07:33:53.577Z,92.80
2022-11-18T07:36:23.782Z,92.80
2022-11-18T07:38:52.420Z,92.90
2022-11-18T07:41:22.952Z,92.90
2022-11-18T07:43:56.208Z,92.90
2022-11-18T07:46:29.073Z,92.90
2022-11-18T07:48:59.756Z,92.90
2022-11-18T07:51:29.856Z,92.90
2022-11-18T07:53:57.808Z,92.90
2022-11-18T07:56:26.042Z,92.90
2022-11-18T07:58:54.954Z,92.90
2022-11-18T08:01:25.046Z,92.90
2022-11-18T08:03:53.354Z,92.90
2022-11-18T08:06:22.712Z,92.90
2022-11-18T08:08:50.649Z,92.90
2022-11-18T08:11:22.777Z,92.90
2022-11-18T08:13:51.068Z,93.00
2022-11-18T08:16:21.251Z,93.00
2022-11-18T08:18:49.489Z,93.00
2022-11-18T08:21:19.660Z,93.00
2022-11-18T08:23:52.276Z,93.00
2022-11-18T08:26:20.700Z,93.00
2022-11-18T08:28:49.259Z,93.10
2022-11-18T08:31:18.533Z,93.10
2022-11-18T08:33:46.741Z,93.10
2022-11-18T08:36:17.859Z,93.10
2022-11-18T08:38:46.028Z,93.10
2022-11-18T08:41:17.581Z,93.10
2022-11-18T08:43:45.536Z,93.10
2022-11-18T08:46:13.439Z,93.10
2022-11-18T08:48:41.320Z,93.10
2022-11-18T08:51:11.728Z,93.10
2022-11-18T08:53:39.618Z,93.10
2022-11-18T08:56:07.877Z,93.10
2022-11-18T08:58:37.159Z,93.10
2022-11-18T09:01:06.777Z,93.10
2022-11-18T09:03:34.911Z,93.10
2022-11-18T09:06:07.600Z,93.10
2022-11-18T09:08:35.659Z,93.10
2022-11-18T09:11:07.776Z,93.20
2022-11-18T09:14:09.615Z,93.20
2022-11-18T09:16:28.107Z,93.20
2022-11-18T09:18:57.371Z,93.30
2022-11-18T09:21:26.481Z,93.30
2022-11-18T09:23:54.461Z,93.30
2022-11-18T09:26:24.750Z,93.00
2022-11-18T09:28:55.821Z,92.90
2022-11-18T09:31:23.741Z,92.90
2022-11-18T09:33:51.887Z,92.80
2022-11-18T09:36:22.110Z,92.80
2022-11-18T09:38:53.213Z,92.60
2022-11-18T09:41:46.041Z,92.50
2022-11-18T09:44:26.861Z,92.60
2022-11-18T09:47:03.924Z,92.70
2022-11-18T09:49:36.211Z,92.60
2022-11-18T09:52:06.594Z,92.40
2022-11-18T09:54:37.094Z,92.10
2022-11-18T09:57:12.683Z,92.20
2022-11-18T09:59:42.855Z,91.90
2022-11-18T10:02:30.081Z,92.00
2022-11-18T10:05:02.587Z,92.00
2022-11-18T10:07:39.767Z,92.00
2022-11-18T10:10:16.360Z,91.90
2022-11-18T10:12:51.325Z,91.70
2022-11-18T10:15:30.971Z,92.00
2022-11-18T10:18:08.127Z,91.50
2022-11-18T10:20:49.633Z,91.40
2022-11-18T10:23:22.911Z,91.30
2022-11-18T10:25:50.870Z,90.40
2022-11-18T10:28:23.692Z,90.40
2022-11-18T10:30:53.670Z,89.80
2022-11-18T10:33:29.784Z,88.80
2022-11-18T10:36:13.442Z,88.80
2022-11-18T10:38:48.442Z,89.10
2022-11-18T10:41:21.546Z,88.80
2022-11-18T10:43:52.055Z,88.50
2022-11-18T10:46:27.052Z,86.30
2022-11-18T10:49:15.384Z,86.70
2022-11-18T10:51:45.632Z,87.00
2022-11-18T10:54:17.681Z,85.90
2022-11-18T10:56:57.562Z,85.60
2022-11-18T10:59:32.544Z,84.40
2022-11-18T11:02:13.028Z,82.90
2022-11-18T11:04:42.429Z,82.10
2022-11-18T11:07:24.945Z,81.20
2022-11-18T11:10:18.831Z,81.20
2022-11-18T11:12:53.456Z,81.60
2022-11-18T11:15:27.870Z,83.10
2022-11-18T11:18:18.328Z,84.20
2022-11-18T11:20:46.463Z,84.20
2022-11-18T11:23:22.083Z,85.20
2022-11-18T11:28:52.916Z,87.40
2022-11-18T11:31:27.364Z,88.80
2022-11-18T11:34:01.700Z,88.80
2022-11-18T11:36:39.636Z,87.50
2022-11-18T11:39:27.171Z,87.30
2022-11-18T11:42:03.767Z,86.90
2022-11-18T11:44:45.072Z,86.30
2022-11-18T11:47:44.406Z,85.00
2022-11-18T11:50:20.617Z,85.30
2022-11-18T11:53:08.976Z,85.40
2022-11-18T11:55:44.555Z,85.50
2022-11-18T11:58:28.944Z,86.70
2022-11-18T12:01:04.251Z,87.70
2022-11-18T12:03:50.440Z,87.70
2022-11-18T12:06:21.716Z,87.40
2022-11-18T12:09:04.827Z,87.90
2022-11-18T12:11:37.926Z,87.30
2022-11-18T12:14:11.518Z,87.50
2022-11-18T12:16:46.424Z,86.80
2022-11-18T12:19:17.509Z,86.40
2022-11-18T12:22:05.165Z,86.40
2022-11-18T12:24:38.307Z,86.40
2022-11-18T12:27:13.350Z,85.80
2022-11-18T12:29:54.148Z,85.10
2022-11-18T12:32:42.268Z,84.30
2022-11-18T12:35:28.074Z,82.80
2022-11-18T12:38:02.908Z,82.20
2022-11-18T12:40:37.199Z,81.20
2022-11-18T12:43:23.436Z,81.30
2022-11-18T12:45:57.013Z,80.80
2022-11-18T12:48:33.106Z,79.60
2022-11-18T12:51:02.176Z,79.50
2022-11-18T12:53:36.456Z,79.60
2022-11-18T12:56:13.147Z,79.50
2022-11-18T12:58:46.191Z,79.30
2022-11-18T13:01:17.029Z,79.40
2022-11-18T13:03:45.257Z,80.00
2022-11-18T13:06:26.318Z,80.20
2022-11-18T13:08:58.981Z,79.90
2022-11-18T13:11:46.985Z,79.30
2022-11-18T13:14:38.867Z,77.80
2022-11-18T13:17:44.742Z,77.70
2022-11-18T13:20:27.241Z,76.80
2022-11-18T13:23:14.769Z,76.50
2022-11-18T13:25:45.176Z,77.20
2022-11-18T13:28:25.999Z,77.00
2022-11-18T13:31:00.786Z,77.00
2022-11-18T13:33:28.777Z,77.00
2022-11-18T13:35:56.652Z,77.60
2022-11-18T13:38:28.357Z,78.50
2022-11-18T13:41:12.478Z,78.70
2022-11-18T13:43:40.462Z,79.20
2022-11-18T13:46:14.483Z,79.60
2022-11-18T13:48:47.965Z,79.80
2022-11-18T13:51:16.259Z,80.10
2022-11-18T13:53:44.490Z,80.30
2022-11-18T13:56:21.569Z,80.10
2022-11-18T13:59:16.407Z,80.70
2022-11-18T14:01:46.061Z,81.40
2022-11-18T14:04:21.344Z,81.70
2022-11-18T14:06:49.403Z,82.60
2022-11-18T14:09:22.286Z,82.60
2022-11-18T14:12:02.620Z,82.90
2022-11-18T14:14:33.613Z,82.40
2022-11-18T14:17:18.782Z,81.30
2022-11-18T14:19:47.940Z,80.70
2022-11-18T14:22:19.862Z,80.80
2022-11-18T14:24:56.415Z,81.70
2022-11-18T14:27:39.491Z,80.40
2022-11-18T14:30:30.752Z,80.80
2022-11-18T14:33:21.168Z,81.90
2022-11-18T14:35:55.389Z,82.20
2022-11-18T14:41:16.220Z,83.20
2022-11-18T14:43:46.070Z,84.20
2022-11-18T14:46:17.681Z,84.30
2022-11-18T14:48:46.069Z,84.90
2022-11-18T14:51:15.178Z,85.00
2022-11-18T14:53:43.730Z,84.90
2022-11-18T14:56:16.012Z,85.10
2022-11-18T14:58:45.258Z,85.20
2022-11-18T15:01:13.804Z,85.80
2022-11-18T15:03:41.827Z,85.30
2022-11-18T15:06:14.153Z,84.70
2022-11-18T15:08:42.905Z,84.90
2022-11-18T15:11:11.025Z,84.90
2022-11-18T15:13:39.010Z,84.70
2022-11-18T15:16:15.772Z,85.60
2022-11-18T15:18:44.625Z,84.90
2022-11-18T15:21:12.546Z,85.20
2022-11-18T15:23:40.625Z,85.30
2022-11-18T15:26:19.815Z,85.50
2022-11-18T15:28:50.147Z,86.10
2022-11-18T15:31:19.987Z,86.10
2022-11-18T15:33:49.835Z,86.00
2022-11-18T15:36:19.990Z,86.90
2022-11-18T15:38:48.432Z,87.40
2022-11-18T15:41:18.397Z,87.60
2022-11-18T15:43:46.568Z,88.20
2022-11-18T15:46:14.530Z,88.50
2022-11-18T15:48:44.031Z,89.10
2022-11-18T15:51:12.643Z,89.80
2022-11-18T15:53:40.975Z,89.80
2022-11-18T15:56:16.375Z,90.00
2022-11-18T15:58:44.337Z,90.20
2022-11-18T16:01:12.370Z,90.20
2022-11-18T16:03:40.318Z,90.20
2022-11-18T16:06:09.781Z,90.00
2022-11-18T16:08:37.777Z,90.10
2022-11-18T16:11:23.657Z,90.20
2022-11-18T16:13:51.539Z,90.20
2022-11-18T16:16:20.363Z,90.40
2022-11-18T16:18:48.259Z,90.00
2022-11-18T16:21:17.533Z,90.20
2022-11-18T16:23:45.792Z,90.10
2022-11-18T16:26:17.070Z,90.00
2022-11-18T16:28:45.228Z,89.60
2022-11-18T16:31:30.976Z,89.30
2022-11-18T16:33:58.857Z,89.00
2022-11-18T16:36:28.803Z,89.10
2022-11-18T16:38:56.915Z,89.70
2022-11-18T16:41:34.213Z,89.50
2022-11-18T16:44:04.369Z,89.60
2022-11-18T16:46:33.559Z,90.10
2022-11-18T16:49:01.790Z,89.70
2022-11-18T16:51:32.075Z,90.10
2022-11-18T16:54:02.951Z,90.10
2022-11-18T16:56:32.845Z,90.30
2022-11-18T16:59:02.464Z,90.40
2022-11-18T17:01:30.880Z,90.30
2022-11-18T17:04:00.533Z,90.10
2022-11-18T17:06:30.976Z,90.40
2022-11-18T17:09:00.116Z,90.20
2022-11-18T17:11:28.307Z,90.10
2022-11-18T17:13:58.309Z,90.40
2022-11-18T17:16:27.277Z,90.70
2022-11-18T17:18:56.893Z,90.40
2022-11-18T17:21:25.858Z,90.40
2022-11-18T17:23:56.066Z,90.50
2022-11-18T17:26:25.600Z,90.50
2022-11-18T17:28:53.622Z,90.30
2022-11-18T17:31:23.065Z,90.20
2022-11-18T17:33:52.636Z,90.30
2022-11-18T17:36:22.336Z,90.70
2022-11-18T17:38:52.280Z,90.90
2022-11-18T17:41:40.248Z,91.10
2022-11-18T17:44:09.539Z,91.10
2022-11-18T17:46:38.744Z,91.30
2022-11-18T17:49:11.150Z,91.30
2022-11-18T17:51:39.121Z,90.60
2022-11-18T17:54:07.680Z,90.00
2022-11-18T17:56:36.989Z,89.90
2022-11-18T17:59:05.127Z,89.20
2022-11-18T18:01:33.104Z,88.20
2022-11-18T18:04:01.082Z,88.80
2022-11-18T18:06:28.921Z,89.10
2022-11-18T18:08:57.321Z,86.40
2022-11-18T18:11:25.765Z,87.50
2022-11-18T18:14:12.724Z,88.80
2022-11-18T18:16:42.416Z,88.30
2022-11-18T18:19:11.543Z,86.20
2022-11-18T18:21:39.698Z,87.60
2022-11-18T18:24:08.431Z,85.50
2022-11-18T18:26:36.510Z,87.00
2022-11-18T18:29:05.939Z,85.80
2022-11-18T18:31:36.121Z,87.00
2022-11-18T18:34:04.554Z,87.20
2022-11-18T18:36:32.657Z,87.20
2022-11-18T18:39:02.109Z,86.20
2022-11-18T18:41:30.380Z,85.80
2022-11-18T18:43:58.269Z,85.00
2022-11-18T18:46:31.913Z,84.40
2022-11-18T18:49:02.828Z,83.70
2022-11-18T18:51:32.556Z,83.90
2022-11-18T18:54:00.776Z,83.40
2022-11-18T18:56:28.962Z,84.70
2022-11-18T18:58:57.950Z,83.50
2022-11-18T19:01:28.236Z,84.00
2022-11-18T19:03:57.316Z,82.80
2022-11-18T19:09:15.444Z,84.40
2022-11-18T19:12:00.839Z,84.20
2022-11-18T19:14:29.118Z,84.00
2022-11-18T19:16:58.421Z,84.40
2022-11-18T19:19:45.948Z,84.20
2022-11-18T19:22:15.714Z,84.40
2022-11-18T19:24:51.516Z,83.70
2022-11-18T19:27:19.604Z,83.60
2022-11-18T19:29:47.612Z,83.80
2022-11-18T19:32:17.009Z,82.50
2022-11-18T19:34:44.846Z,83.80
2022-11-18T19:37:12.739Z,83.20
2022-11-18T19:39:40.582Z,81.90
2022-11-18T19:42:10.675Z,82.90
2022-11-18T19:44:38.904Z,84.30
2022-11-18T19:47:07.109Z,81.30
2022-11-18T19:49:36.356Z,81.70
2022-11-18T19:52:04.325Z,83.70
2022-11-18T19:54:32.211Z,83.10
2022-11-18T19:57:00.930Z,83.20
2022-11-18T19:59:28.847Z,81.90
2022-11-18T20:01:56.806Z,81.90
2022-11-18T20:04:24.825Z,80.80
2022-11-18T20:06:54.256Z,81.60
2022-11-18T20:09:22.251Z,78.80
2022-11-18T20:11:50.272Z,81.40
2022-11-18T20:14:18.475Z,81.10
2022-11-18T20:16:46.384Z,81.40
2022-11-18T20:19:17.137Z,79.10
2022-11-18T20:21:45.276Z,79.60
2022-11-18T20:24:17.726Z,79.50
2022-11-18T20:26:46.258Z,78.30
2022-11-18T20:29:14.429Z,80.20
2022-11-18T20:31:42.535Z,80.00
2022-11-18T20:34:14.402Z,78.50
2022-11-18T20:36:42.753Z,79.10
2022-11-18T20:39:14.649Z,78.60
2022-11-18T20:42:03.986Z,79.10
2022-11-18T20:44:31.854Z,77.90
2022-11-18T20:46:59.778Z,75.90
2022-11-18T20:49:27.639Z,76.50
2022-11-18T20:51:55.557Z,76.00
2022-11-18T20:54:23.465Z,77.20
2022-11-18T20:56:52.712Z,76.30
2022-11-18T20:59:20.941Z,76.20
2022-11-18T21:01:49.286Z,76.90
2022-11-18T21:04:17.554Z,77.40
2022-11-18T21:06:45.426Z,76.80
2022-11-18T21:09:14.314Z,74.70
2022-11-18T21:11:42.228Z,78.60
2022-11-18T21:14:23.800Z,77.40
2022-11-18T21:16:53.149Z,77.20
2022-11-18T21:19:21.452Z,77.00
2022-11-18T21:21:49.073Z,78.30
2022-11-18T21:24:18.271Z,78.00
2022-11-18T21:26:47.647Z,76.20
2022-11-18T21:29:18.157Z,79.10
2022-11-18T21:31:46.967Z,78.90
2022-11-18T21:34:15.773Z,78.60
2022-11-18T21:36:47.010Z,76.70
2022-11-18T21:39:17.825Z,78.20
2022-11-18T21:41:49.349Z,78.20
2022-11-18T21:44:21.469Z,75.40
2022-11-18T21:46:49.351Z,77.80
2022-11-18T21:49:17.634Z,75.90
2022-11-18T21:51:45.763Z,78.00
2022-11-18T21:54:15.909Z,78.50
2022-11-18T21:56:43.955Z,78.00
2022-11-18T21:59:12.094Z,78.00
2022-11-18T22:01:41.386Z,77.20
2022-11-18T22:04:29.331Z,76.10
2022-11-18T22:06:57.227Z,76.80
2022-11-18T22:09:25.168Z,78.00
2022-11-18T22:11:53.068Z,76.60
2022-11-18T22:14:21.076Z,77.20
2022-11-18T22:16:51.365Z,76.40
2022-11-18T22:19:19.358Z,75.30
2022-11-18T22:21:47.305Z,75.70
2022-11-18T22:24:15.157Z,75.20
2022-11-18T22:26:43.058Z,75.60
2022-11-18T22:29:10.900Z,76.00
2022-11-18T22:31:38.827Z,75.10
2022-11-18T22:34:08.120Z,75.20
2022-11-18T22:36:36.043Z,76.00
2022-11-18T22:39:03.996Z,76.10
2022-11-18T22:41:49.488Z,75.80
2022-11-18T22:44:17.901Z,75.50
2022-11-18T22:46:46.667Z,75.90
2022-11-18T22:49:15.853Z,75.80
2022-11-18T22:51:43.731Z,75.80
2022-11-18T22:56:59.699Z,75.40
2022-11-18T22:59:27.605Z,75.40
2022-11-18T23:01:55.578Z,76.20
2022-11-18T23:04:24.956Z,77.20
2022-11-18T23:06:52.806Z,76.40
2022-11-18T23:09:20.913Z,75.50
2022-11-18T23:12:06.183Z,76.50
2022-11-18T23:14:34.210Z,76.20
2022-11-18T23:17:02.081Z,76.20
2022-11-18T23:19:31.362Z,75.30
2022-11-18T23:21:59.232Z,73.80
2022-11-18T23:24:27.114Z,75.40
2022-11-18T23:26:54.974Z,75.10
2022-11-18T23:29:23.078Z,74.70
2022-11-18T23:31:51.094Z,75.80
2022-11-18T23:34:19.598Z,75.10
2022-11-18T23:36:49.017Z,73.80
2022-11-18T23:39:17.842Z,74.10
2022-11-18T23:41:46.043Z,73.80
2022-11-18T23:44:13.922Z,74.70
2022-11-18T23:46:42.085Z,74.00
2022-11-18T23:49:10.162Z,74.10
2022-11-18T23:51:38.137Z,74.50
2022-11-18T23:54:07.448Z,72.90
2022-11-18T23:56:38.323Z,72.90
2022-11-18T23:59:06.833Z,73.30
